createdAt,value
2018-05-18T00:00:54.570Z,50.75
2018-05-18T00:01:59.991Z,56.15
2018-05-18T00:03:05.406Z,63.53
2018-05-18T00:04:10.927Z,54.43
2018-05-18T00:05:16.465Z,56.10
2018-05-18T00:06:21.857Z,47.47
2018-05-18T00:07:27.313Z,66.43
2018-05-18T00:08:32.808Z,45.78
2018-05-18T00:09:38.330Z,51.40
2018-05-18T00:10:43.734Z,54.43
2018-05-18T00:11:49.156Z,56.03
2018-05-18T00:12:54.654Z,55.12
2018-05-18T00:14:00.062Z,55.33
2018-05-18T00:15:05.543Z,59.00
2018-05-18T00:16:10.946Z,51.17
2018-05-18T00:17:16.423Z,51.70
2018-05-18T00:18:21.819Z,46.58
2018-05-18T00:19:27.275Z,49.80
2018-05-18T00:20:33.159Z,51.25
2018-05-18T00:21:38.498Z,49.95
2018-05-18T00:22:43.809Z,54.80
2018-05-18T00:23:49.221Z,46.20
2018-05-18T00:24:54.607Z,52.63
2018-05-18T00:26:00.051Z,59.50
2018-05-18T00:27:05.517Z,61.40
2018-05-18T00:28:10.919Z,52.15
2018-05-18T00:29:16.308Z,53.15
2018-05-18T00:30:21.758Z,45.88
2018-05-18T00:31:27.164Z,55.00
2018-05-18T00:32:32.555Z,51.37
2018-05-18T00:33:38.015Z,65.05
2018-05-18T00:34:43.651Z,52.85
2018-05-18T00:35:49.057Z,55.00
2018-05-18T00:36:54.711Z,53.47
2018-05-18T00:38:00.584Z,54.65
2018-05-18T00:39:06.326Z,56.85
2018-05-18T00:40:11.919Z,50.60
2018-05-18T00:41:17.445Z,53.53
2018-05-18T00:42:22.928Z,59.00
2018-05-18T00:43:29.284Z,53.03
2018-05-18T00:44:34.734Z,54.00
2018-05-18T00:45:40.150Z,60.05
2018-05-18T00:46:45.576Z,57.97
2018-05-18T00:47:51.030Z,62.33
2018-05-18T00:48:56.722Z,54.08
2018-05-18T00:50:02.145Z,65.43
2018-05-18T00:51:07.585Z,62.03
2018-05-18T00:52:13.013Z,66.65
2018-05-18T00:53:18.420Z,71.20
2018-05-18T00:54:23.888Z,59.20
2018-05-18T00:55:33.652Z,69.65
2018-05-18T00:56:39.296Z,59.83
2018-05-18T00:57:44.707Z,56.10
2018-05-18T00:58:50.078Z,52.92
2018-05-18T00:59:55.779Z,67.20
2018-05-18T01:01:01.237Z,65.40
2018-05-18T01:02:06.627Z,57.08
2018-05-18T01:03:12.070Z,56.65
2018-05-18T01:04:17.641Z,56.03
2018-05-18T01:05:23.639Z,57.85
2018-05-18T01:06:29.016Z,54.63
2018-05-18T01:07:34.320Z,58.47
2018-05-18T01:08:39.656Z,57.10
2018-05-18T01:09:44.997Z,57.42
2018-05-18T01:10:50.320Z,57.20
2018-05-18T01:11:56.060Z,61.85
2018-05-18T01:13:01.385Z,53.20
2018-05-18T01:14:07.129Z,51.58
2018-05-18T01:15:12.499Z,43.85
2018-05-18T01:16:17.854Z,52.20
2018-05-18T01:17:23.298Z,77.65
2018-05-18T01:18:28.752Z,71.00
2018-05-18T01:19:34.280Z,62.80
2018-05-18T01:20:39.909Z,54.00
2018-05-18T01:21:45.471Z,55.60
2018-05-18T01:22:51.022Z,48.50
2018-05-18T01:23:56.647Z,55.03
2018-05-18T01:25:01.993Z,68.00
2018-05-18T01:26:07.303Z,60.03
2018-05-18T01:27:12.599Z,65.40
2018-05-18T01:28:18.039Z,60.53
2018-05-18T01:29:23.359Z,61.10
2018-05-18T01:30:28.770Z,60.45
2018-05-18T01:31:34.107Z,61.40
2018-05-18T01:32:39.528Z,69.10
2018-05-18T01:33:45.084Z,81.37
2018-05-18T01:34:50.544Z,71.87
2018-05-18T01:35:55.954Z,69.12
2018-05-18T01:37:01.343Z,58.30
2018-05-18T01:38:06.773Z,61.42
2018-05-18T01:39:12.160Z,63.47
2018-05-18T01:40:17.576Z,60.83
2018-05-18T01:41:22.992Z,56.83
2018-05-18T01:42:28.432Z,50.10
2018-05-18T01:43:34.337Z,49.60
2018-05-18T01:44:39.808Z,53.60
2018-05-18T01:45:45.197Z,52.83
2018-05-18T01:46:50.616Z,60.38
2018-05-18T01:47:56.005Z,54.45
2018-05-18T01:49:01.603Z,59.03
2018-05-18T01:50:07.284Z,57.60
2018-05-18T01:51:12.691Z,50.05
2018-05-18T01:52:18.033Z,52.65
2018-05-18T01:53:23.422Z,51.95
2018-05-18T01:54:28.808Z,51.20
2018-05-18T01:55:34.190Z,47.40
2018-05-18T01:56:39.606Z,50.38
2018-05-18T01:57:44.994Z,64.53
2018-05-18T01:58:50.510Z,67.60
2018-05-18T01:59:56.224Z,73.90
2018-05-18T02:01:01.760Z,77.87
2018-05-18T02:02:07.437Z,75.28
2018-05-18T02:03:12.752Z,74.93
2018-05-18T02:04:18.149Z,68.00
2018-05-18T02:05:23.543Z,70.43
2018-05-18T02:06:29.494Z,71.53
2018-05-18T02:07:35.232Z,59.25
2018-05-18T02:08:40.615Z,66.25
2018-05-18T02:09:46.114Z,67.28
2018-05-18T02:10:51.529Z,58.78
2018-05-18T02:11:57.212Z,53.42
2018-05-18T02:13:02.882Z,53.50
2018-05-18T02:14:08.405Z,50.00
2018-05-18T02:15:13.749Z,54.13
2018-05-18T02:16:19.132Z,47.72
2018-05-18T02:17:24.519Z,46.60
2018-05-18T02:18:29.920Z,46.83
2018-05-18T02:19:35.239Z,56.23
2018-05-18T02:20:41.216Z,53.50
2018-05-18T02:21:46.595Z,57.30
2018-05-18T02:22:51.975Z,55.20
2018-05-18T02:23:57.361Z,62.83
2018-05-18T02:25:02.855Z,57.60
2018-05-18T02:26:08.616Z,59.05
2018-05-18T02:27:14.254Z,62.15
2018-05-18T02:28:19.847Z,56.05
2018-05-18T02:29:25.253Z,57.30
2018-05-18T02:30:30.674Z,55.80
2018-05-18T02:31:36.469Z,58.50
2018-05-18T02:32:42.067Z,50.08
2018-05-18T02:33:47.673Z,57.00
2018-05-18T02:34:53.073Z,60.10
2018-05-18T02:35:58.834Z,53.08
2018-05-18T02:37:04.527Z,55.67
2018-05-18T02:38:09.989Z,59.45
2018-05-18T02:39:15.394Z,42.62
2018-05-18T02:40:20.890Z,51.97
2018-05-18T02:41:26.631Z,50.50
2018-05-18T02:42:32.124Z,44.20
2018-05-18T02:43:37.545Z,44.33
2018-05-18T02:44:42.943Z,50.83
2018-05-18T02:45:48.574Z,41.25
2018-05-18T02:46:54.973Z,51.03
2018-05-18T02:48:00.725Z,38.30
2018-05-18T02:49:06.164Z,61.63
2018-05-18T02:50:11.594Z,45.45
2018-05-18T02:51:17.009Z,54.90
2018-05-18T02:52:22.571Z,47.75
2018-05-18T02:53:28.221Z,50.15
2018-05-18T02:54:33.615Z,42.95
2018-05-18T02:55:39.017Z,46.60
2018-05-18T02:56:44.426Z,47.17
2018-05-18T02:57:49.888Z,48.08
2018-05-18T02:58:55.308Z,51.80
2018-05-18T03:00:00.915Z,54.13
2018-05-18T03:01:06.921Z,41.20
2018-05-18T03:02:12.483Z,39.55
2018-05-18T03:03:17.892Z,45.60
2018-05-18T03:04:23.697Z,53.57
2018-05-18T03:05:29.389Z,46.00
2018-05-18T03:06:34.823Z,47.78
2018-05-18T03:07:40.227Z,44.53
2018-05-18T03:08:45.635Z,46.35
2018-05-18T03:09:51.046Z,51.20
2018-05-18T03:10:56.512Z,55.70
2018-05-18T03:12:02.234Z,50.10
2018-05-18T03:13:07.624Z,49.75
2018-05-18T03:14:13.052Z,49.67
2018-05-18T03:15:18.558Z,49.13
2018-05-18T03:16:23.955Z,43.72
2018-05-18T03:17:29.623Z,52.75
2018-05-18T03:18:34.994Z,43.40
2018-05-18T03:19:40.435Z,57.85
2018-05-18T03:20:45.866Z,57.55
2018-05-18T03:21:51.330Z,67.37
2018-05-18T03:22:57.103Z,44.83
2018-05-18T03:24:02.527Z,48.63
2018-05-18T03:25:07.911Z,48.70
2018-05-18T03:26:13.317Z,59.17
2018-05-18T03:27:18.725Z,47.90
2018-05-18T03:28:24.526Z,57.33
2018-05-18T03:29:30.028Z,60.10
2018-05-18T03:30:35.490Z,61.97
2018-05-18T03:31:40.927Z,54.80
2018-05-18T03:32:46.367Z,58.60
2018-05-18T03:33:51.822Z,53.83
2018-05-18T03:34:57.517Z,59.07
2018-05-18T03:36:03.207Z,52.30
2018-05-18T03:37:08.609Z,55.22
2018-05-18T03:38:14.043Z,53.03
2018-05-18T03:39:19.499Z,55.78
2018-05-18T03:40:25.057Z,53.30
2018-05-18T03:41:30.985Z,47.22
2018-05-18T03:42:36.352Z,47.65
2018-05-18T03:43:42.003Z,50.47
2018-05-18T03:44:47.405Z,48.67
2018-05-18T03:45:53.086Z,49.45
2018-05-18T03:46:58.475Z,46.00
2018-05-18T03:48:03.886Z,48.17
2018-05-18T03:49:09.328Z,40.42
2018-05-18T03:50:14.831Z,46.20
2018-05-18T03:51:20.247Z,45.53
2018-05-18T03:52:25.639Z,31.58
2018-05-18T03:53:31.027Z,36.80
2018-05-18T03:54:36.743Z,34.47
2018-05-18T03:55:42.144Z,47.58
2018-05-18T03:56:47.550Z,36.40
2018-05-18T03:57:52.950Z,40.35
2018-05-18T03:58:58.314Z,38.20
2018-05-18T04:00:04.386Z,35.15
2018-05-18T04:01:10.378Z,43.83
2018-05-18T04:04:28.207Z,33.70
2018-05-18T04:07:40.076Z,39.70
2018-05-18T04:08:45.927Z,36.78
2018-05-18T04:09:51.618Z,36.03
2018-05-18T04:10:56.971Z,34.50
2018-05-18T04:12:02.381Z,40.25
2018-05-18T04:13:08.642Z,33.50
2018-05-18T04:14:14.044Z,32.90
2018-05-18T04:15:19.628Z,34.47
2018-05-18T04:16:25.059Z,31.48
2018-05-18T04:17:30.467Z,42.60
2018-05-18T04:18:35.836Z,40.17
2018-05-18T04:19:41.251Z,51.20
2018-05-18T04:20:46.648Z,48.10
2018-05-18T04:21:52.138Z,58.30
2018-05-18T04:22:57.711Z,55.55
2018-05-18T04:24:03.095Z,56.00
2018-05-18T04:25:08.495Z,63.45
2018-05-18T04:26:13.891Z,80.50
2018-05-18T04:27:19.302Z,85.35
2018-05-18T04:28:24.875Z,77.55
2018-05-18T04:29:30.278Z,78.83
2018-05-18T04:30:35.659Z,54.28
2018-05-18T04:31:41.092Z,47.78
2018-05-18T04:32:46.460Z,52.58
2018-05-18T04:33:51.911Z,62.10
2018-05-18T04:34:57.354Z,63.28
2018-05-18T04:36:02.856Z,74.70
2018-05-18T04:37:08.391Z,70.77
2018-05-18T04:38:14.681Z,57.58
2018-05-18T04:39:20.283Z,44.88
2018-05-18T04:40:25.697Z,43.95
2018-05-18T04:41:31.298Z,38.75
2018-05-18T04:42:36.691Z,36.83
2018-05-18T04:43:42.130Z,45.28
2018-05-18T04:44:47.597Z,38.83
2018-05-18T04:45:53.102Z,39.45
2018-05-18T04:46:58.580Z,34.17
2018-05-18T04:48:03.963Z,42.62
2018-05-18T04:49:09.358Z,39.45
2018-05-18T04:50:15.080Z,40.65
2018-05-18T04:51:20.484Z,44.40
2018-05-18T04:52:26.424Z,39.55
2018-05-18T04:53:31.828Z,34.47
2018-05-18T04:54:37.445Z,37.13
2018-05-18T04:55:48.209Z,40.70
2018-05-18T04:56:53.630Z,35.55
2018-05-18T04:57:59.061Z,44.20
2018-05-18T04:59:04.478Z,34.40
2018-05-18T05:00:10.144Z,34.92
2018-05-18T05:01:15.941Z,44.00
2018-05-18T05:02:21.356Z,33.92
2018-05-18T05:03:26.826Z,40.83
2018-05-18T05:04:32.242Z,42.25
2018-05-18T05:05:37.817Z,46.33
2018-05-18T05:06:43.587Z,39.77
2018-05-18T05:07:48.984Z,40.40
2018-05-18T05:08:54.433Z,37.60
2018-05-18T05:10:04.914Z,46.45
2018-05-18T05:11:10.399Z,48.33
2018-05-18T05:12:16.237Z,42.92
2018-05-18T05:13:21.771Z,45.40
2018-05-18T05:14:27.462Z,46.13
2018-05-18T05:15:33.690Z,46.40
2018-05-18T05:16:39.169Z,46.83
2018-05-18T05:17:44.574Z,54.47
2018-05-18T05:18:49.982Z,55.25
2018-05-18T05:19:55.401Z,55.83
2018-05-18T05:21:00.851Z,49.63
2018-05-18T05:22:06.338Z,56.00
2018-05-18T05:23:12.129Z,48.95
2018-05-18T05:24:17.763Z,56.17
2018-05-18T05:25:23.182Z,60.00
2018-05-18T05:26:28.583Z,64.78
2018-05-18T05:27:34.126Z,63.03
2018-05-18T05:28:39.531Z,65.03
2018-05-18T05:29:45.174Z,69.53
2018-05-18T05:30:50.560Z,64.68
2018-05-18T05:31:56.018Z,67.25
2018-05-18T05:33:01.423Z,68.30
2018-05-18T05:35:09.487Z,65.30
2018-05-18T05:36:14.946Z,84.80
2018-05-18T05:37:20.382Z,80.85
2018-05-18T05:38:25.841Z,68.00
2018-05-18T05:39:31.160Z,71.15
2018-05-18T05:40:36.523Z,65.37
2018-05-18T05:41:42.248Z,71.18
2018-05-18T05:42:47.647Z,70.28
2018-05-18T05:43:53.055Z,70.75
2018-05-18T05:44:58.493Z,66.45
2018-05-18T05:46:04.036Z,75.78
2018-05-18T05:47:09.629Z,67.20
2018-05-18T05:48:15.065Z,63.05
2018-05-18T05:49:20.490Z,109.45
2018-05-18T05:50:26.051Z,68.28
2018-05-18T05:51:31.485Z,73.70
2018-05-18T05:52:37.218Z,78.37
2018-05-18T05:53:42.614Z,70.87
2018-05-18T05:54:48.247Z,94.82
2018-05-18T05:55:53.659Z,77.65
2018-05-18T05:56:59.115Z,79.72
2018-05-18T05:58:04.984Z,57.60
2018-05-18T05:59:10.400Z,76.65
2018-05-18T06:00:15.846Z,66.97
2018-05-18T06:01:21.267Z,80.45
2018-05-18T06:02:26.676Z,67.80
2018-05-18T06:03:32.295Z,66.85
2018-05-18T06:04:37.691Z,64.80
2018-05-18T06:05:43.140Z,61.47
2018-05-18T06:06:48.575Z,58.22
2018-05-18T06:07:53.977Z,62.58
2018-05-18T06:08:59.369Z,67.68
2018-05-18T06:10:04.819Z,73.03
2018-05-18T06:11:10.227Z,63.03
2018-05-18T06:12:15.686Z,60.65
2018-05-18T06:13:21.242Z,75.75
2018-05-18T06:14:26.801Z,63.65
2018-05-18T06:15:32.205Z,55.17
2018-05-18T06:16:37.629Z,63.95
2018-05-18T06:17:43.033Z,67.53
2018-05-18T06:18:48.460Z,66.60
2018-05-18T06:19:53.879Z,77.00
2018-05-18T06:20:59.595Z,81.33
2018-05-18T06:22:05.587Z,77.00
2018-05-18T06:23:11.143Z,90.12
2018-05-18T06:24:16.827Z,87.47
2018-05-18T06:25:22.243Z,77.68
2018-05-18T06:26:27.657Z,74.95
2018-05-18T06:27:33.082Z,93.35
2018-05-18T06:28:38.547Z,87.12
2018-05-18T06:29:44.044Z,72.87
2018-05-18T06:30:49.410Z,71.82
2018-05-18T06:31:55.118Z,73.20
2018-05-18T06:33:01.364Z,72.47
2018-05-18T06:34:06.808Z,62.88
2018-05-18T06:35:12.282Z,58.35
2018-05-18T06:36:17.686Z,71.53
2018-05-18T06:37:23.097Z,75.93
2018-05-18T06:38:28.514Z,73.87
2018-05-18T06:39:33.933Z,79.25
2018-05-18T06:40:39.371Z,78.18
2018-05-18T06:41:44.920Z,67.82
2018-05-18T06:42:50.357Z,70.90
2018-05-18T06:43:55.883Z,67.93
2018-05-18T06:45:01.306Z,61.13
2018-05-18T06:46:06.746Z,58.70
2018-05-18T06:47:12.175Z,52.95
2018-05-18T06:48:17.859Z,48.08
2018-05-18T06:49:23.289Z,54.73
2018-05-18T06:50:28.707Z,53.80
2018-05-18T06:51:34.285Z,46.37
2018-05-18T06:52:39.756Z,39.40
2018-05-18T06:53:45.165Z,41.15
2018-05-18T06:54:50.583Z,37.40
2018-05-18T06:55:56.292Z,36.45
2018-05-18T06:57:01.726Z,29.27
2018-05-18T06:58:07.126Z,46.05
2018-05-18T06:59:12.839Z,34.78
2018-05-18T07:00:18.342Z,55.70
2018-05-18T07:01:23.774Z,52.17
2018-05-18T07:02:29.176Z,53.20
2018-05-18T07:03:34.610Z,64.55
2018-05-18T07:04:40.089Z,61.97
2018-05-18T07:05:45.545Z,55.97
2018-05-18T07:06:50.948Z,59.80
2018-05-18T07:07:56.431Z,63.67
2018-05-18T07:09:01.852Z,64.70
2018-05-18T07:10:07.402Z,54.00
2018-05-18T07:11:13.108Z,62.47
2018-05-18T07:12:18.514Z,61.08
2018-05-18T07:13:23.974Z,70.75
2018-05-18T07:14:29.436Z,78.65
2018-05-18T07:15:34.867Z,75.40
2018-05-18T07:16:40.345Z,80.47
2018-05-18T07:17:45.991Z,80.87
2018-05-18T07:18:51.771Z,90.32
2018-05-18T07:19:57.474Z,83.97
2018-05-18T07:21:02.932Z,80.03
2018-05-18T07:22:08.802Z,70.45
2018-05-18T07:23:14.220Z,82.28
2018-05-18T07:24:19.701Z,82.03
2018-05-18T07:25:25.098Z,77.82
2018-05-18T07:26:30.571Z,81.93
2018-05-18T07:27:36.332Z,74.60
2018-05-18T07:28:41.747Z,73.72
2018-05-18T07:29:47.199Z,80.20
2018-05-18T07:30:52.768Z,82.00
2018-05-18T07:31:58.177Z,74.37
2018-05-18T07:33:03.583Z,81.35
2018-05-18T07:34:09.020Z,80.20
2018-05-18T07:35:14.459Z,72.90
2018-05-18T07:36:20.183Z,83.53
2018-05-18T07:37:25.655Z,87.35
2018-05-18T07:38:31.628Z,80.75
2018-05-18T07:39:37.085Z,80.70
2018-05-18T07:40:42.563Z,70.72
2018-05-18T07:41:49.015Z,70.30
2018-05-18T07:42:54.917Z,70.97
2018-05-18T07:44:00.664Z,81.00
2018-05-18T07:45:06.146Z,65.28
2018-05-18T07:46:12.260Z,70.60
2018-05-18T07:47:17.719Z,88.68
2018-05-18T07:48:23.379Z,76.37
2018-05-18T07:49:29.162Z,75.85
2018-05-18T07:50:34.949Z,86.25
2018-05-18T07:51:40.394Z,70.70
2018-05-18T07:52:45.972Z,84.25
2018-05-18T07:53:51.737Z,73.40
2018-05-18T07:54:58.120Z,74.07
2018-05-18T07:56:03.557Z,75.12
2018-05-18T07:57:09.015Z,76.62
2018-05-18T07:58:14.491Z,64.43
2018-05-18T07:59:20.076Z,69.40
2018-05-18T08:00:25.690Z,79.03
2018-05-18T08:01:31.397Z,62.92
2018-05-18T08:02:36.824Z,77.57
2018-05-18T08:03:42.262Z,67.25
2018-05-18T08:04:47.747Z,62.92
2018-05-18T08:05:53.309Z,80.05
2018-05-18T08:06:59.136Z,68.57
2018-05-18T08:08:04.703Z,71.68
2018-05-18T08:09:10.319Z,74.87
2018-05-18T08:10:15.840Z,61.45
2018-05-18T08:11:21.568Z,62.80
2018-05-18T08:12:27.100Z,64.12
2018-05-18T08:13:32.550Z,58.70
2018-05-18T08:14:38.109Z,61.47
2018-05-18T08:15:43.783Z,71.03
2018-05-18T08:16:49.189Z,54.70
2018-05-18T08:17:55.005Z,62.62
2018-05-18T08:19:00.491Z,61.72
2018-05-18T08:20:05.992Z,62.10
2018-05-18T08:21:11.532Z,59.90
2018-05-18T08:22:16.978Z,62.65
2018-05-18T08:23:22.547Z,63.42
2018-05-18T08:24:28.166Z,58.35
2018-05-18T08:25:33.597Z,51.53
2018-05-18T08:26:39.079Z,53.50
2018-05-18T08:27:44.863Z,56.30
2018-05-18T08:28:54.732Z,57.42
2018-05-18T08:30:00.317Z,58.83
2018-05-18T08:31:09.616Z,61.65
2018-05-18T08:32:15.135Z,58.55
2018-05-18T08:33:21.032Z,66.50
2018-05-18T08:34:27.044Z,57.17
2018-05-18T08:35:32.662Z,66.65
2018-05-18T08:36:38.108Z,57.08
2018-05-18T08:37:43.770Z,67.15
2018-05-18T08:38:49.214Z,61.63
2018-05-18T08:39:54.957Z,55.42
2018-05-18T08:41:00.600Z,52.38
2018-05-18T08:42:06.157Z,59.72
2018-05-18T08:43:11.594Z,62.17
2018-05-18T08:44:17.570Z,81.57
2018-05-18T08:45:23.475Z,71.07
2018-05-18T08:46:29.139Z,67.78
2018-05-18T08:47:34.943Z,53.72
2018-05-18T08:48:40.366Z,58.45
2018-05-18T08:49:45.812Z,52.38
2018-05-18T08:50:51.323Z,53.47
2018-05-18T08:51:56.947Z,53.03
2018-05-18T08:53:02.362Z,57.50
2018-05-18T08:54:08.600Z,56.37
2018-05-18T08:55:14.062Z,46.72
2018-05-18T08:56:19.762Z,48.42
2018-05-18T08:57:25.220Z,45.43
2018-05-18T08:58:30.808Z,42.25
2018-05-18T08:59:36.292Z,38.45
2018-05-18T09:00:41.758Z,45.27
2018-05-18T09:01:47.152Z,49.70
2018-05-18T09:02:52.917Z,44.22
2018-05-18T09:03:58.427Z,47.72
2018-05-18T09:05:04.002Z,52.00
2018-05-18T09:06:09.739Z,51.53
2018-05-18T09:07:15.223Z,51.08
2018-05-18T09:08:20.701Z,44.92
2018-05-18T09:09:56.560Z,56.60
2018-05-18T09:11:01.999Z,41.78
2018-05-18T09:12:07.449Z,47.70
2018-05-18T09:13:12.906Z,43.60
2018-05-18T09:14:18.420Z,41.85
2018-05-18T09:15:36.060Z,52.03
2018-05-18T09:16:43.237Z,56.97
2018-05-18T09:17:59.562Z,41.58
2018-05-18T09:19:20.377Z,42.28
2018-05-18T09:20:25.917Z,48.45
2018-05-18T09:21:34.198Z,50.05
2018-05-18T09:22:39.669Z,50.42
2018-05-18T09:23:45.520Z,47.58
2018-05-18T09:24:52.307Z,38.60
2018-05-18T09:26:00.022Z,42.00
2018-05-18T09:27:05.559Z,41.47
2018-05-18T09:28:53.354Z,51.47
2018-05-18T09:29:59.317Z,40.80
2018-05-18T09:31:04.873Z,40.00
2018-05-18T09:32:10.342Z,39.08
2018-05-18T09:33:16.278Z,49.30
2018-05-18T09:34:21.793Z,43.83
2018-05-18T09:35:27.516Z,39.67
2018-05-18T09:36:34.564Z,47.55
2018-05-18T09:37:40.491Z,43.08
2018-05-18T09:38:46.149Z,46.57
2018-05-18T09:39:51.851Z,46.35
2018-05-18T09:40:57.264Z,35.27
2018-05-18T09:42:02.759Z,45.53
2018-05-18T09:43:08.395Z,43.70
2018-05-18T09:44:14.098Z,48.73
2018-05-18T09:45:19.550Z,53.25
2018-05-18T09:46:25.460Z,66.28
2018-05-18T09:47:30.958Z,56.30
2018-05-18T09:48:36.464Z,45.72
2018-05-18T09:49:41.963Z,47.65
2018-05-18T09:50:47.505Z,43.58
2018-05-18T09:53:35.318Z,41.15
2018-05-18T09:54:41.179Z,48.00
2018-05-18T09:55:47.407Z,60.13
2018-05-18T09:56:53.613Z,47.72
2018-05-18T09:57:59.636Z,44.22
2018-05-18T09:59:05.078Z,43.35
2018-05-18T10:00:10.658Z,37.40
2018-05-18T10:01:16.121Z,42.90
2018-05-18T10:02:22.334Z,46.33
2018-05-18T10:03:27.902Z,39.05
2018-05-18T10:04:33.460Z,45.75
2018-05-18T10:05:39.193Z,39.88
2018-05-18T10:06:44.754Z,46.40
2018-05-18T10:07:50.572Z,40.53
2018-05-18T10:08:56.106Z,38.20
2018-05-18T10:10:06.233Z,98.05
2018-05-18T10:11:20.110Z,53.35
2018-05-18T10:12:25.692Z,40.33
2018-05-18T10:13:32.852Z,36.72
2018-05-18T10:14:38.385Z,84.90
2018-05-18T10:15:43.898Z,68.10
2018-05-18T10:16:51.957Z,43.03
2018-05-18T10:17:59.348Z,28.20
2018-05-18T10:19:05.022Z,36.83
2018-05-18T10:20:11.514Z,30.55
2018-05-18T10:21:21.942Z,35.33
2018-05-18T10:22:29.551Z,37.30
2018-05-18T10:23:35.174Z,36.38
2018-05-18T10:24:40.685Z,34.35
2018-05-18T10:25:46.418Z,33.20
2018-05-18T10:26:54.988Z,32.95
2018-05-18T10:28:01.632Z,31.77
2018-05-18T10:29:08.755Z,29.17
2018-05-18T10:30:14.870Z,37.70
2018-05-18T10:31:20.322Z,29.77
2018-05-18T10:32:27.251Z,25.77
2018-05-18T10:33:36.835Z,27.13
2018-05-18T10:34:44.563Z,31.75
2018-05-18T10:35:50.132Z,33.38
2018-05-18T10:36:55.875Z,38.50
2018-05-18T10:38:03.981Z,29.20
2018-05-18T10:39:09.780Z,29.75
2018-05-18T10:40:15.227Z,31.77
2018-05-18T10:41:20.752Z,32.85
2018-05-18T10:42:26.176Z,30.52
2018-05-18T10:43:31.645Z,29.20
2018-05-18T10:44:37.106Z,25.95
2018-05-18T10:45:42.680Z,27.85
2018-05-18T10:46:48.158Z,22.15
2018-05-18T10:47:53.590Z,29.08
2018-05-18T10:48:59.073Z,22.13
2018-05-18T10:50:04.813Z,24.75
2018-05-18T10:51:10.561Z,86.32
2018-05-18T10:52:15.996Z,41.42
2018-05-18T10:53:21.491Z,23.80
2018-05-18T10:54:26.887Z,28.40
2018-05-18T10:55:32.681Z,30.92
2018-05-18T10:56:38.266Z,30.48
2018-05-18T10:57:43.769Z,28.58
2018-05-18T10:58:49.224Z,28.85
2018-05-18T10:59:54.826Z,24.52
2018-05-18T11:01:00.287Z,25.33
2018-05-18T11:02:05.785Z,32.50
2018-05-18T11:03:11.211Z,34.00
2018-05-18T11:04:16.647Z,29.17
2018-05-18T11:05:22.226Z,25.85
2018-05-18T11:06:30.940Z,25.62
2018-05-18T11:07:36.703Z,22.35
2018-05-18T11:08:43.656Z,32.15
2018-05-18T11:09:49.229Z,29.42
2018-05-18T11:10:54.669Z,28.62
2018-05-18T11:12:00.778Z,22.63
2018-05-18T11:13:08.005Z,28.30
2018-05-18T11:14:13.846Z,53.38
2018-05-18T11:15:21.270Z,24.83
2018-05-18T11:16:26.739Z,25.27
2018-05-18T11:17:33.423Z,31.00
2018-05-18T11:18:40.235Z,27.95
2018-05-18T11:19:47.655Z,24.52
2018-05-18T11:20:54.452Z,31.40
2018-05-18T11:22:01.647Z,22.58
2018-05-18T11:23:07.125Z,32.53
2018-05-18T11:24:12.646Z,23.48
2018-05-18T11:25:19.682Z,32.15
2018-05-18T11:26:26.279Z,36.88
2018-05-18T11:27:34.858Z,29.37
2018-05-18T11:28:41.465Z,42.80
2018-05-18T11:29:47.589Z,44.17
2018-05-18T11:30:53.131Z,44.95
2018-05-18T11:31:59.939Z,31.05
2018-05-18T11:33:05.554Z,37.78
2018-05-18T11:34:11.089Z,51.47
2018-05-18T11:35:17.720Z,42.73
2018-05-18T11:36:23.199Z,48.75
2018-05-18T11:37:28.720Z,49.78
2018-05-18T11:38:36.089Z,56.35
2018-05-18T11:39:41.590Z,39.45
2018-05-18T11:40:49.509Z,34.00
2018-05-18T11:41:56.194Z,37.88
2018-05-18T11:43:03.841Z,34.10
2018-05-18T11:44:20.128Z,37.25
2018-05-18T11:45:25.574Z,34.33
2018-05-18T11:46:31.144Z,41.65
2018-05-18T11:47:41.754Z,47.05
2018-05-18T11:48:49.620Z,30.52
2018-05-18T11:49:56.260Z,44.67
2018-05-18T11:51:03.173Z,30.70
2018-05-18T11:52:10.752Z,29.17
2018-05-18T11:53:16.429Z,26.70
2018-05-18T11:54:23.463Z,30.67
2018-05-18T11:55:28.972Z,25.52
2018-05-18T11:56:36.022Z,25.35
2018-05-18T11:57:41.761Z,27.45
2018-05-18T11:58:47.551Z,20.95
2018-05-18T11:59:53.065Z,21.40
2018-05-18T12:00:58.516Z,16.33
2018-05-18T12:02:04.035Z,24.45
2018-05-18T12:03:09.864Z,34.15
2018-05-18T12:04:15.595Z,34.78
2018-05-18T12:05:21.089Z,28.55
2018-05-18T12:06:26.514Z,28.48
2018-05-18T12:07:31.975Z,24.23
2018-05-18T12:08:37.499Z,24.05
2018-05-18T12:09:43.112Z,24.75
2018-05-18T12:10:48.962Z,22.62
2018-05-18T12:11:54.460Z,31.52
2018-05-18T12:12:59.933Z,36.45
2018-05-18T12:14:05.510Z,36.73
2018-05-18T12:15:11.502Z,34.88
2018-05-18T12:16:17.834Z,37.53
2018-05-18T12:17:28.923Z,33.45
2018-05-18T12:18:35.348Z,32.10
2018-05-18T12:19:40.907Z,33.50
2018-05-18T12:20:46.458Z,26.42
2018-05-18T12:21:51.896Z,27.27
2018-05-18T12:22:57.580Z,31.27
2018-05-18T12:24:03.077Z,30.80
2018-05-18T12:25:08.706Z,36.83
2018-05-18T12:26:14.288Z,33.28
2018-05-18T12:27:19.667Z,31.55
2018-05-18T12:28:25.159Z,33.60
2018-05-18T12:29:30.600Z,27.35
2018-05-18T12:30:38.353Z,29.17
2018-05-18T12:31:44.356Z,27.52
2018-05-18T12:32:49.797Z,33.55
2018-05-18T12:33:55.398Z,24.05
2018-05-18T12:35:02.907Z,30.50
2018-05-18T12:36:09.839Z,27.27
2018-05-18T12:37:15.713Z,24.35
2018-05-18T12:38:21.944Z,31.12
2018-05-18T12:39:27.378Z,26.35
2018-05-18T12:40:32.967Z,25.80
2018-05-18T12:41:38.464Z,20.35
2018-05-18T12:42:46.143Z,17.35
2018-05-18T12:43:52.161Z,24.10
2018-05-18T12:44:57.881Z,25.10
2018-05-18T12:46:03.603Z,29.25
2018-05-18T12:47:09.428Z,20.15
2018-05-18T12:48:15.344Z,22.65
2018-05-18T12:49:20.894Z,26.15
2018-05-18T12:50:27.894Z,29.58
2018-05-18T12:51:33.601Z,20.02
2018-05-18T12:52:43.848Z,27.35
2018-05-18T12:53:49.959Z,28.55
2018-05-18T12:54:55.472Z,26.30
2018-05-18T12:56:01.041Z,24.08
2018-05-18T12:57:06.553Z,22.87
2018-05-18T12:58:12.089Z,29.00
2018-05-18T12:59:22.719Z,27.75
2018-05-18T13:00:28.476Z,18.17
2018-05-18T13:01:36.381Z,26.62
2018-05-18T13:02:43.452Z,17.87
2018-05-18T13:03:51.652Z,26.33
2018-05-18T13:04:57.816Z,18.35
2018-05-18T13:06:03.335Z,28.52
2018-05-18T13:07:11.372Z,25.60
2018-05-18T13:08:17.390Z,23.75
2018-05-18T13:09:22.932Z,19.20
2018-05-18T13:10:28.492Z,25.15
2018-05-18T13:11:33.975Z,30.73
2018-05-18T13:12:39.428Z,35.38
2018-05-18T13:13:44.896Z,37.70
2018-05-18T13:14:50.325Z,32.58
2018-05-18T13:15:55.819Z,34.78
2018-05-18T13:17:08.910Z,44.15
2018-05-18T13:18:14.641Z,37.35
2018-05-18T13:19:22.184Z,29.15
2018-05-18T13:20:30.417Z,84.72
2018-05-18T13:21:36.297Z,28.05
2018-05-18T13:22:42.045Z,26.13
2018-05-18T13:23:50.095Z,32.78
2018-05-18T13:24:56.715Z,28.38
2018-05-18T13:26:02.158Z,36.45
2018-05-18T13:27:07.599Z,22.65
2018-05-18T13:28:14.435Z,33.40
2018-05-18T13:29:19.881Z,28.52
2018-05-18T13:30:26.211Z,40.30
2018-05-18T13:31:31.701Z,25.83
2018-05-18T13:32:38.836Z,25.83
2018-05-18T13:33:44.333Z,25.90
2018-05-18T13:34:51.085Z,27.30
2018-05-18T13:35:56.720Z,27.15
2018-05-18T13:37:02.215Z,20.05
2018-05-18T13:38:07.736Z,22.73
2018-05-18T13:39:13.272Z,22.80
2018-05-18T13:40:19.712Z,20.80
2018-05-18T13:41:25.422Z,25.33
2018-05-18T13:42:30.857Z,19.62
2018-05-18T13:43:36.302Z,24.75
2018-05-18T13:44:41.754Z,30.08
2018-05-18T13:45:47.467Z,22.00
2018-05-18T13:46:52.937Z,22.05
2018-05-18T13:47:58.391Z,27.33
2018-05-18T13:49:03.822Z,37.28
2018-05-18T13:50:09.233Z,24.80
2018-05-18T13:51:15.116Z,22.33
2018-05-18T13:52:20.932Z,20.95
2018-05-18T13:53:26.378Z,21.67
2018-05-18T13:54:31.779Z,15.75
2018-05-18T13:55:37.236Z,19.17
2018-05-18T13:56:42.712Z,17.27
2018-05-18T13:57:48.195Z,22.52
2018-05-18T13:58:53.633Z,27.67
2018-05-18T13:59:59.224Z,25.65
2018-05-18T14:01:04.673Z,24.42
2018-05-18T14:02:10.435Z,16.65
2018-05-18T14:03:15.900Z,18.48
2018-05-18T14:04:21.366Z,16.05
2018-05-18T14:05:26.801Z,22.45
2018-05-18T14:06:32.308Z,19.10
2018-05-18T14:07:38.177Z,27.00
2018-05-18T14:08:43.571Z,19.52
2018-05-18T14:09:49.107Z,23.20
2018-05-18T14:10:54.585Z,20.15
2018-05-18T14:12:00.047Z,20.67
2018-05-18T14:13:05.773Z,14.32
2018-05-18T14:14:11.368Z,17.70
2018-05-18T14:15:16.833Z,24.83
2018-05-18T14:16:24.820Z,19.50